Terminal Aerodrome Forecast
Issued by NWS

Home | Current Version | Previous Version | Graphics & Text | Print | Product List | Glossary On
Versions: 1 2 3 4 5 6 7 8 9 10 11 12 13 14 15 16 17 18 19 20 21 22
861
FTUS43 KABR 201128
TAFPIR
TAF
KPIR 201128Z 2012/2112 03007KT P6SM SKC
     FM201800 09006KT P6SM BKN110
     FM210500 04009KT P6SM OVC060
     FM210600 04010KT P6SM -RA OVC050
     FM210800 04010KT 5SM -RASN OVC040
     FM210900 04010KT 4SM -SN OVC035=

USA.gov is the U.S. government's official web portal to all federal, state and local government web resources and services.